sensor_id;sensor_type;location;lat;lon;timestamp;P1;durP1;ratioP1;P2;durP2;ratioP2
6424;SDS011;12193;42.642;23.384;2023-12-29T00:01:41;15.90;;;8.23;;
6424;SDS011;12193;42.642;23.384;2023-12-29T00:04:13;16.63;;;8.73;;
6424;SDS011;12193;42.642;23.384;2023-12-29T00:06:43;18.10;;;9.00;;
6424;SDS011;12193;42.642;23.384;2023-12-29T00:09:12;15.27;;;9.17;;
6424;SDS011;12193;42.642;23.384;2023-12-29T00:11:45;18.90;;;10.10;;
6424;SDS011;12193;42.642;23.384;2023-12-29T00:14:16;19.00;;;10.77;;
6424;SDS011;12193;42.642;23.384;2023-12-29T00:16:45;21.97;;;10.83;;
6424;SDS011;12193;42.642;23.384;2023-12-29T00:19:17;20.80;;;11.43;;
6424;SDS011;12193;42.642;23.384;2023-12-29T00:21:46;20.50;;;10.57;;
6424;SDS011;12193;42.642;23.384;2023-12-29T00:24:16;16.80;;;10.10;;
6424;SDS011;12193;42.642;23.384;2023-12-29T00:26:45;25.07;;;11.83;;
6424;SDS011;12193;42.642;23.384;2023-12-29T00:29:15;21.60;;;10.97;;
6424;SDS011;12193;42.642;23.384;2023-12-29T00:31:45;23.63;;;12.00;;
6424;SDS011;12193;42.642;23.384;2023-12-29T00:34:16;23.47;;;11.13;;
6424;SDS011;12193;42.642;23.384;2023-12-29T00:36:46;18.80;;;9.83;;
6424;SDS011;12193;42.642;23.384;2023-12-29T00:39:15;21.50;;;10.80;;
6424;SDS011;12193;42.642;23.384;2023-12-29T00:41:44;27.50;;;13.80;;
6424;SDS011;12193;42.642;23.384;2023-12-29T00:44:13;32.40;;;16.47;;
6424;SDS011;12193;42.642;23.384;2023-12-29T00:46:42;37.17;;;18.90;;
6424;SDS011;12193;42.642;23.384;2023-12-29T00:49:12;29.43;;;16.20;;
6424;SDS011;12193;42.642;23.384;2023-12-29T00:51:44;30.23;;;15.27;;
6424;SDS011;12193;42.642;23.384;2023-12-29T00:54:13;29.07;;;14.57;;
6424;SDS011;12193;42.642;23.384;2023-12-29T00:56:42;27.50;;;14.27;;
6424;SDS011;12193;42.642;23.384;2023-12-29T00:59:17;28.87;;;15.07;;
6424;SDS011;12193;42.642;23.384;2023-12-29T01:01:47;23.47;;;12.00;;
6424;SDS011;12193;42.642;23.384;2023-12-29T01:04:17;17.03;;;8.47;;
6424;SDS011;12193;42.642;23.384;2023-12-29T03:58:24;28.90;;;13.77;;
6424;SDS011;12193;42.642;23.384;2023-12-29T04:00:53;27.90;;;13.93;;
6424;SDS011;12193;42.642;23.384;2023-12-29T04:03:21;31.70;;;15.17;;
6424;SDS011;12193;42.642;23.384;2023-12-29T04:05:50;26.60;;;14.70;;
6424;SDS011;12193;42.642;23.384;2023-12-29T04:08:19;30.93;;;15.20;;
6424;SDS011;12193;42.642;23.384;2023-12-29T04:10:48;29.80;;;14.97;;
6424;SDS011;12193;42.642;23.384;2023-12-29T04:13:16;28.13;;;15.80;;
6424;SDS011;12193;42.642;23.384;2023-12-29T04:15:48;32.40;;;16.37;;
6424;SDS011;12193;42.642;23.384;2023-12-29T04:18:16;28.20;;;15.30;;
6424;SDS011;12193;42.642;23.384;2023-12-29T04:20:45;30.43;;;16.00;;
6424;SDS011;12193;42.642;23.384;2023-12-29T04:23:14;34.83;;;15.63;;
6424;SDS011;12193;42.642;23.384;2023-12-29T04:25:43;26.37;;;13.30;;
6424;SDS011;12193;42.642;23.384;2023-12-29T04:28:12;17.87;;;9.70;;
6424;SDS011;12193;42.642;23.384;2023-12-29T04:30:41;14.60;;;8.73;;
6424;SDS011;12193;42.642;23.384;2023-12-29T04:33:12;14.60;;;7.33;;
6424;SDS011;12193;42.642;23.384;2023-12-29T04:35:40;14.13;;;7.70;;
6424;SDS011;12193;42.642;23.384;2023-12-29T04:38:09;12.47;;;7.50;;
6424;SDS011;12193;42.642;23.384;2023-12-29T04:40:38;12.17;;;7.53;;
6424;SDS011;12193;42.642;23.384;2023-12-29T04:43:06;15.87;;;7.10;;
6424;SDS011;12193;42.642;23.384;2023-12-29T04:45:35;14.70;;;8.03;;
6424;SDS011;12193;42.642;23.384;2023-12-29T04:48:04;14.30;;;7.40;;
6424;SDS011;12193;42.642;23.384;2023-12-29T04:50:35;15.37;;;7.80;;
6424;SDS011;12193;42.642;23.384;2023-12-29T04:53:04;15.10;;;7.87;;
6424;SDS011;12193;42.642;23.384;2023-12-29T04:55:32;17.80;;;8.27;;
6424;SDS011;12193;42.642;23.384;2023-12-29T04:58:01;15.80;;;8.53;;
6424;SDS011;12193;42.642;23.384;2023-12-29T05:00:30;16.07;;;9.17;;
6424;SDS011;12193;42.642;23.384;2023-12-29T05:02:59;18.63;;;8.60;;
6424;SDS011;12193;42.642;23.384;2023-12-29T05:05:27;17.10;;;9.10;;
6424;SDS011;12193;42.642;23.384;2023-12-29T05:07:59;15.70;;;8.93;;
6424;SDS011;12193;42.642;23.384;2023-12-29T05:10:28;10.90;;;4.93;;
6424;SDS011;12193;42.642;23.384;2023-12-29T05:13:00;10.07;;;4.70;;
6424;SDS011;12193;42.642;23.384;2023-12-29T05:15:29;11.47;;;5.97;;
6424;SDS011;12193;42.642;23.384;2023-12-29T05:17:57;11.70;;;6.30;;
6424;SDS011;12193;42.642;23.384;2023-12-29T05:20:26;10.33;;;5.93;;
6424;SDS011;12193;42.642;23.384;2023-12-29T05:22:55;11.97;;;6.10;;
6424;SDS011;12193;42.642;23.384;2023-12-29T05:25:26;12.33;;;6.30;;
6424;SDS011;12193;42.642;23.384;2023-12-29T05:27:55;11.90;;;6.60;;
6424;SDS011;12193;42.642;23.384;2023-12-29T05:30:24;7.87;;;5.20;;
6424;SDS011;12193;42.642;23.384;2023-12-29T05:32:53;7.10;;;4.77;;
6424;SDS011;12193;42.642;23.384;2023-12-29T05:35:21;7.67;;;5.23;;
6424;SDS011;12193;42.642;23.384;2023-12-29T05:37:50;8.67;;;5.20;;
6424;SDS011;12193;42.642;23.384;2023-12-29T05:40:19;10.23;;;5.40;;
6424;SDS011;12193;42.642;23.384;2023-12-29T05:42:50;11.63;;;5.87;;
6424;SDS011;12193;42.642;23.384;2023-12-29T05:45:19;11.57;;;5.70;;
6424;SDS011;12193;42.642;23.384;2023-12-29T05:47:48;12.20;;;6.70;;
6424;SDS011;12193;42.642;23.384;2023-12-29T05:50:17;11.37;;;6.20;;
6424;SDS011;12193;42.642;23.384;2023-12-29T05:52:45;10.27;;;6.23;;
6424;SDS011;12193;42.642;23.384;2023-12-29T05:55:17;12.00;;;6.57;;
6424;SDS011;12193;42.642;23.384;2023-12-29T05:57:46;13.90;;;7.27;;
6424;SDS011;12193;42.642;23.384;2023-12-29T06:00:18;10.93;;;6.60;;
6424;SDS011;12193;42.642;23.384;2023-12-29T06:02:46;17.20;;;8.40;;
6424;SDS011;12193;42.642;23.384;2023-12-29T06:05:15;19.10;;;10.23;;
6424;SDS011;12193;42.642;23.384;2023-12-29T06:07:44;24.00;;;11.70;;
6424;SDS011;12193;42.642;23.384;2023-12-29T06:10:13;28.00;;;14.63;;
6424;SDS011;12193;42.642;23.384;2023-12-29T06:12:41;35.17;;;17.77;;
6424;SDS011;12193;42.642;23.384;2023-12-29T06:15:12;52.53;;;25.80;;
6424;SDS011;12193;42.642;23.384;2023-12-29T06:17:43;49.70;;;24.87;;
6424;SDS011;12193;42.642;23.384;2023-12-29T06:20:12;45.17;;;24.47;;
6424;SDS011;12193;42.642;23.384;2023-12-29T06:22:40;52.03;;;26.90;;
6424;SDS011;12193;42.642;23.384;2023-12-29T06:25:09;49.17;;;25.60;;
6424;SDS011;12193;42.642;23.384;2023-12-29T06:27:39;60.03;;;30.47;;
6424;SDS011;12193;42.642;23.384;2023-12-29T06:30:08;57.20;;;28.77;;
6424;SDS011;12193;42.642;23.384;2023-12-29T06:32:37;54.23;;;29.27;;
6424;SDS011;12193;42.642;23.384;2023-12-29T06:35:08;58.90;;;29.13;;
6424;SDS011;12193;42.642;23.384;2023-12-29T06:37:39;52.37;;;27.20;;
6424;SDS011;12193;42.642;23.384;2023-12-29T06:40:08;48.97;;;25.70;;
6424;SDS011;12193;42.642;23.384;2023-12-29T06:42:37;47.53;;;26.90;;
6424;SDS011;12193;42.642;23.384;2023-12-29T06:45:06;46.17;;;26.07;;
6424;SDS011;12193;42.642;23.384;2023-12-29T06:47:36;42.13;;;23.03;;
6424;SDS011;12193;42.642;23.384;2023-12-29T06:50:08;41.03;;;21.90;;
6424;SDS011;12193;42.642;23.384;2023-12-29T06:52:38;33.77;;;19.27;;
6424;SDS011;12193;42.642;23.384;2023-12-29T06:55:07;33.40;;;18.87;;
6424;SDS011;12193;42.642;23.384;2023-12-29T06:57:36;35.87;;;19.60;;
6424;SDS011;12193;42.642;23.384;2023-12-29T07:00:05;32.27;;;16.90;;
6424;SDS011;12193;42.642;23.384;2023-12-29T07:02:37;32.03;;;16.40;;
6424;SDS011;12193;42.642;23.384;2023-12-29T07:05:08;29.27;;;15.03;;
6424;SDS011;12193;42.642;23.384;2023-12-29T07:07:37;27.13;;;15.70;;
6424;SDS011;12193;42.642;23.384;2023-12-29T07:10:06;28.97;;;16.97;;
6424;SDS011;12193;42.642;23.384;2023-12-29T07:12:35;31.40;;;18.43;;
6424;SDS011;12193;42.642;23.384;2023-12-29T07:15:04;35.37;;;19.40;;
6424;SDS011;12193;42.642;23.384;2023-12-29T07:17:33;41.00;;;19.73;;
6424;SDS011;12193;42.642;23.384;2023-12-29T07:20:02;33.47;;;18.43;;
6424;SDS011;12193;42.642;23.384;2023-12-29T07:22:35;35.23;;;18.87;;
6424;SDS011;12193;42.642;23.384;2023-12-29T07:25:04;28.03;;;15.83;;
6424;SDS011;12193;42.642;23.384;2023-12-29T07:27:32;27.53;;;15.40;;
6424;SDS011;12193;42.642;23.384;2023-12-29T07:30:01;30.47;;;16.07;;
6424;SDS011;12193;42.642;23.384;2023-12-29T07:32:30;26.80;;;16.00;;
6424;SDS011;12193;42.642;23.384;2023-12-29T07:34:59;29.63;;;16.30;;
6424;SDS011;12193;42.642;23.384;2023-12-29T07:37:27;27.60;;;16.67;;
6424;SDS011;12193;42.642;23.384;2023-12-29T07:39:59;29.40;;;15.80;;
6424;SDS011;12193;42.642;23.384;2023-12-29T07:42:28;25.53;;;14.57;;
6424;SDS011;12193;42.642;23.384;2023-12-29T07:44:58;30.20;;;15.17;;
6424;SDS011;12193;42.642;23.384;2023-12-29T07:47:26;25.87;;;13.97;;
6424;SDS011;12193;42.642;23.384;2023-12-29T07:49:55;23.10;;;13.47;;
6424;SDS011;12193;42.642;23.384;2023-12-29T07:52:24;26.93;;;14.17;;
6424;SDS011;12193;42.642;23.384;2023-12-29T07:54:52;22.03;;;12.73;;
6424;SDS011;12193;42.642;23.384;2023-12-29T07:57:24;25.80;;;13.70;;
6424;SDS011;12193;42.642;23.384;2023-12-29T07:59:52;22.90;;;13.23;;
6424;SDS011;12193;42.642;23.384;2023-12-29T08:02:21;25.63;;;13.20;;
6424;SDS011;12193;42.642;23.384;2023-12-29T08:04:50;27.23;;;15.60;;
6424;SDS011;12193;42.642;23.384;2023-12-29T08:07:20;37.37;;;20.43;;
6424;SDS011;12193;42.642;23.384;2023-12-29T08:09:48;38.03;;;21.47;;
6424;SDS011;12193;42.642;23.384;2023-12-29T08:12:17;38.27;;;22.57;;
6424;SDS011;12193;42.642;23.384;2023-12-29T08:14:48;43.13;;;23.93;;
6424;SDS011;12193;42.642;23.384;2023-12-29T08:17:17;45.83;;;25.80;;
6424;SDS011;12193;42.642;23.384;2023-12-29T08:19:46;53.50;;;27.57;;
6424;SDS011;12193;42.642;23.384;2023-12-29T08:22:15;46.80;;;26.30;;
6424;SDS011;12193;42.642;23.384;2023-12-29T08:24:43;48.63;;;25.93;;
6424;SDS011;12193;42.642;23.384;2023-12-29T08:27:12;43.70;;;24.43;;
6424;SDS011;12193;42.642;23.384;2023-12-29T08:29:41;49.90;;;26.27;;
6424;SDS011;12193;42.642;23.384;2023-12-29T08:32:12;47.23;;;24.20;;
6424;SDS011;12193;42.642;23.384;2023-12-29T08:34:41;49.43;;;24.80;;
6424;SDS011;12193;42.642;23.384;2023-12-29T08:37:10;48.90;;;24.33;;
6424;SDS011;12193;42.642;23.384;2023-12-29T08:39:41;46.37;;;23.97;;
6424;SDS011;12193;42.642;23.384;2023-12-29T08:42:10;50.20;;;23.67;;
6424;SDS011;12193;42.642;23.384;2023-12-29T08:44:38;51.07;;;23.50;;
6424;SDS011;12193;42.642;23.384;2023-12-29T08:47:07;44.40;;;23.63;;
6424;SDS011;12193;42.642;23.384;2023-12-29T08:49:39;44.47;;;23.63;;
6424;SDS011;12193;42.642;23.384;2023-12-29T08:52:07;44.50;;;23.43;;
6424;SDS011;12193;42.642;23.384;2023-12-29T08:54:37;41.90;;;23.13;;
6424;SDS011;12193;42.642;23.384;2023-12-29T08:57:05;43.20;;;22.87;;
6424;SDS011;12193;42.642;23.384;2023-12-29T08:59:35;36.77;;;22.23;;
6424;SDS011;12193;42.642;23.384;2023-12-29T09:02:04;38.83;;;21.37;;
6424;SDS011;12193;42.642;23.384;2023-12-29T09:04:33;38.40;;;22.40;;
6424;SDS011;12193;42.642;23.384;2023-12-29T09:07:05;40.67;;;23.13;;
6424;SDS011;12193;42.642;23.384;2023-12-29T09:09:33;43.03;;;23.50;;
6424;SDS011;12193;42.642;23.384;2023-12-29T09:12:02;42.13;;;23.73;;
6424;SDS011;12193;42.642;23.384;2023-12-29T09:14:31;42.17;;;24.27;;
